Gassim, السعودية

09:46 AM AST on سبتهبر 03, 2015 (GMT +0300)
Gassim | | Change Station
CLOSE
Current Station
Airport
Location: Gassim,
Elevation: 2126 ft
Nearby Weather Stations

Elev 2126 ft 26.30 °N, 43.77 °E | Updated 46 minutes ago

Clear
صافية
93 °F
Feels Like 93 °F
N
2
ريح متغير ريح from شرق

هذا اليوم
High -- | Low -- °F
--% Chance of Precip.
Yesterday
High -- | Low -- °F
Precip. -- في
5:45 AM 6:23 PM
الأحدب الأخير, 73% visible
الضغط 29.89 في
وضوح الرؤية 3.7 أميال
سحابات صافية
نقطة الندى 46 °F
الرطوبة 20%
Rainfall 0.00 في
عمق الثلج Not available.
الأشعة فوق البنفسجية 7 out of 12
Pollen Not available.
جودة الهواء Not available.
Flu Activity Not available.
METAR OEGS 030600Z 10002KT 6000 SKC 34/08 Q1012
الضغط 29.89 في
وضوح الرؤية 3.7 أميال
سحابات صافية
نقطة الندى 46 °F
الرطوبة 20%
Rainfall 0.00 في
عمق الثلج Not available.
الأشعة فوق البنفسجية 7 out of 12
Pollen Not available.
جودة الهواء Not available.
Flu Activity Not available.
METAR OEGS 030600Z 10002KT 6000 SKC 34/08 Q1012

10-Day Weather Forecast

×

Almanac

علم الفلك

Sep. 03, 2015 Rise Set
Actual Time
Civil Twilight
Nautical Twilight
Astronomical Twilight
قمر
Length Of Visible Light
طول الیوم
Tomorrow will be .
, % of the Moon is Illuminated

Today's Extremes

Country Highs Country Lows

Community

WunderPhotos

Upload Photos

1,851,913 photos uploaded!

WunderBlogs® & News

Nearby

جودة الهواء

  جودة الهواء AQ Index Pollutant
Not available.

عمق الثلج

Station Depth Elevation

Earthquake Activity

City Distance Mag. Time & Date
Minimum magnitude displayed is 2.5.

Coastal Water Temperatures

مكان درجات الحرارة

Stations

Nearby Weather Stations

Station Location الحرارة رياح باردة نقطة الندى الرطوبة ريح Precip. Elev تحديث Type